Time;durP1;ratioP1;P1;durP2;ratioP2;P2;SDS_P1;SDS_P2;PMS_P1;PMS_P2;Temp;Humidity;BMP_temperature;BMP_pressure;BME280_temperature;BME280_humidity;BME280_pressure;Samples;Min_cycle;Max_cycle;Signal;HPM_P1;HPM_P2
2023/02/14 05:34:47;;;;;;;23.55;7.95;;;13.80;62.10;;;;;;5026902;24;20370;-78
2023/02/14 05:37:24;;;;;;;23.75;7.32;;;14.00;61.90;;;;;;4854515;29;20528;-79
2023/02/14 05:39:50;;;;;;;16.58;6.80;;;14.00;62.00;;;;;;4851307;29;20481;-78
2023/02/14 05:42:18;;;;;;;17.05;7.05;;;14.10;61.70;;;;;;4842609;29;20078;-81
2023/02/14 05:44:44;;;;;;;19.25;7.68;;;14.20;61.60;;;;;;4846029;29;20099;-78
2023/02/14 05:47:10;;;;;;;15.73;7.40;;;14.30;61.40;;;;;;4828129;29;20034;-72
2023/02/14 05:49:35;;;;;;;15.50;7.25;;;14.30;61.20;;;;;;4830584;29;20065;-77
2023/02/14 05:52:01;;;;;;;11.93;7.03;;;14.50;61.10;;;;;;4827590;29;20200;-75
2023/02/14 05:54:27;;;;;;;14.82;7.55;;;14.50;61.00;;;;;;4831013;29;20449;-77
2023/02/14 05:56:53;;;;;;;13.35;7.20;;;14.50;60.80;;;;;;4832298;29;20073;-75
2023/02/14 05:59:19;;;;;;;10.20;7.28;;;14.60;60.70;;;;;;4843838;29;20152;-71
2023/02/14 06:01:44;;;;;;;12.25;7.45;;;14.70;60.30;;;;;;4844007;29;20053;-70
2023/02/14 06:04:10;;;;;;;9.45;7.53;;;14.80;60.20;;;;;;4844057;29;20429;-72
2023/02/14 06:06:36;;;;;;;9.45;6.60;;;14.80;59.90;;;;;;4844236;29;20438;-71
2023/02/14 06:09:02;;;;;;;11.50;6.93;;;14.90;59.90;;;;;;4851165;29;20049;-75
2023/02/14 06:11:27;;;;;;;9.02;6.18;;;14.90;59.60;;;;;;4862460;29;20077;-72
2023/02/14 06:13:53;;;;;;;10.70;5.90;;;15.00;59.60;;;;;;4863106;29;20483;-73
2023/02/14 06:16:19;;;;;;;10.82;6.30;;;15.00;59.40;;;;;;4850351;29;20113;-71
2023/02/14 06:18:44;;;;;;;9.77;5.90;;;15.10;59.40;;;;;;4860182;29;20427;-72
2023/02/14 06:21:10;;;;;;;7.50;5.65;;;15.10;59.20;;;;;;4831968;29;20050;-71
2023/02/14 06:23:36;;;;;;;7.20;4.72;;;15.10;59.20;;;;;;4847089;29;20137;-70
2023/02/14 06:26:02;;;;;;;8.55;4.90;;;15.10;59.10;;;;;;4831212;29;20046;-72
2023/02/14 06:28:28;;;;;;;9.07;5.03;;;15.20;59.10;;;;;;4833586;29;20062;-74
2023/02/14 06:30:53;;;;;;;8.13;5.18;;;15.20;59.00;;;;;;4865456;29;20132;-72
2023/02/14 06:33:19;;;;;;;7.53;4.60;;;15.30;59.00;;;;;;4849696;29;20058;-71
2023/02/14 06:35:45;;;;;;;11.13;4.90;;;15.30;59.10;;;;;;4865667;29;20070;-72
2023/02/14 06:38:11;;;;;;;7.80;4.85;;;15.40;59.20;;;;;;4865778;29;20133;-72
2023/02/14 06:40:36;;;;;;;8.32;4.70;;;15.40;59.50;;;;;;4864918;29;20372;-71
2023/02/14 06:43:02;;;;;;;8.20;4.60;;;15.40;59.50;;;;;;4866193;29;20057;-77
2023/02/14 06:45:28;;;;;;;8.82;4.88;;;15.40;59.60;;;;;;4858568;29;20342;-74
2023/02/14 08:06:37;;;;;;;10.85;3.50;;;16.20;58.10;;;;;;5612360;24;20055;-73
2023/02/14 08:09:03;;;;;;;11.10;3.95;;;16.20;58.10;;;;;;4861487;29;20065;-76
2023/02/14 08:14:13;;;;;;;;;;;16.20;58.10;;;;;;4863116;29;20057;-73
2023/02/14 08:16:39;;;;;;;8.90;3.50;;;16.20;58.10;;;;;;4859219;29;19924;-75
2023/02/14 08:19:04;;;;;;;9.70;3.60;;;16.20;58.10;;;;;;4862861;29;20076;-74
2023/02/14 08:21:30;;;;;;;15.15;3.55;;;16.30;58.20;;;;;;4863058;29;20053;-74
2023/02/14 08:23:56;;;;;;;12.32;3.90;;;16.30;58.80;;;;;;4863995;29;20096;-74
2023/02/14 08:26:22;;;;;;;10.20;3.25;;;16.30;58.20;;;;;;4863521;29;20137;-75
2023/02/14 08:28:47;;;;;;;7.95;2.85;;;16.30;58.40;;;;;;4862314;29;20113;-78
2023/02/14 08:31:23;;;;;;;8.73;3.63;;;16.20;58.50;;;;;;4862351;29;20131;-73
2023/02/14 08:33:49;;;;;;;8.50;3.45;;;16.20;58.50;;;;;;4863216;29;20053;-75
2023/02/14 08:36:16;;;;;;;6.00;3.08;;;16.20;58.60;;;;;;4863182;29;20038;-76
2023/02/14 08:38:44;;;;;;;7.95;3.00;;;16.10;54.90;;;;;;4862940;29;20057;-75
2023/02/14 08:41:10;;;;;;;10.13;3.85;;;15.70;58.80;;;;;;4862492;29;20127;-71
2023/02/14 08:43:36;;;;;;;14.77;4.20;;;15.80;59.40;;;;;;4863425;29;20361;-76
2023/02/14 08:46:02;;;;;;;14.60;3.30;;;15.80;59.30;;;;;;4863008;29;20081;-72
2023/02/14 08:48:28;;;;;;;9.55;3.88;;;15.90;59.30;;;;;;4862266;29;20104;-74
2023/02/14 08:50:54;;;;;;;13.77;3.25;;;16.00;59.20;;;;;;4862922;29;20060;-73
2023/02/14 08:53:20;;;;;;;7.63;3.47;;;16.00;59.00;;;;;;4862983;29;20058;-72
2023/02/14 08:55:47;;;;;;;12.45;4.28;;;16.10;58.90;;;;;;4848456;29;20376;-74
2023/02/14 08:58:13;;;;;;;19.90;4.43;;;16.10;58.80;;;;;;4862836;29;20049;-73
2023/02/14 09:00:38;;;;;;;10.63;3.75;;;16.10;58.80;;;;;;4862998;29;20049;-73
2023/02/14 09:03:04;;;;;;;11.07;5.63;;;16.10;58.70;;;;;;4863134;29;20061;-74
2023/02/14 09:05:30;;;;;;;10.05;6.25;;;16.10;58.00;;;;;;4862725;29;20076;-74
2023/02/14 09:07:56;;;;;;;10.45;7.43;;;16.20;57.40;;;;;;4846453;29;20393;-73
2023/02/14 09:10:23;;;;;;;14.10;9.25;;;16.10;56.90;;;;;;4863308;29;20102;-74
2023/02/14 09:12:50;;;;;;;12.80;10.38;;;16.10;55.70;;;;;;4846827;29;20060;-74
2023/02/14 09:15:15;;;;;;;12.25;9.88;;;16.00;55.30;;;;;;4863632;29;20053;-74
2023/02/14 09:17:41;;;;;;;11.95;10.35;;;16.00;54.00;;;;;;4861854;29;20479;-74
2023/02/14 09:20:09;;;;;;;15.80;9.85;;;16.00;53.70;;;;;;4861882;29;20053;-73
2023/02/14 09:22:34;;;;;;;13.93;9.60;;;15.90;52.50;;;;;;4863144;29;20361;-74
2023/02/14 09:25:00;;;;;;;10.00;8.70;;;15.80;54.00;;;;;;4863139;29;20128;-72
2023/02/14 09:27:26;;;;;;;11.40;7.90;;;15.90;54.10;;;;;;4861345;29;20065;-76
2023/02/14 09:29:52;;;;;;;10.25;7.38;;;16.00;54.50;;;;;;4862093;29;20465;-76
2023/02/14 09:32:18;;;;;;;12.00;7.82;;;16.00;54.40;;;;;;4861995;29;20053;-73
2023/02/14 09:34:44;;;;;;;9.48;7.15;;;16.20;54.80;;;;;;4861472;29;20088;-73
2023/02/14 09:37:11;;;;;;;8.38;6.70;;;16.20;54.90;;;;;;4862106;29;20084;-73
2023/02/14 09:39:37;;;;;;;11.60;7.13;;;16.30;55.10;;;;;;4862682;29;20049;-75
2023/02/14 09:42:22;;;;;;;7.72;6.03;;;16.30;55.30;;;;;;4861381;29;20132;-73
2023/02/14 09:44:55;;;;;;;11.48;6.00;;;16.30;55.50;;;;;;4853306;29;20062;-74
2023/02/14 09:47:29;;;;;;;8.13;5.85;;;16.30;55.60;;;;;;4844111;29;20137;-77
2023/02/14 09:49:57;;;;;;;8.35;6.22;;;16.40;55.80;;;;;;4857056;29;20049;-74
2023/02/14 09:52:27;;;;;;;8.05;5.05;;;16.40;55.90;;;;;;4865395;29;20053;-73
2023/02/14 09:54:57;;;;;;;5.90;4.53;;;16.50;56.60;;;;;;4866613;29;20065;-75
2023/02/14 09:57:36;;;;;;;8.80;5.05;;;16.50;56.00;;;;;;4866133;29;20053;-75
2023/02/14 10:00:19;;;;;;;9.82;4.93;;;16.60;56.20;;;;;;4865639;29;20120;-74
2023/02/14 10:03:29;;;;;;;8.57;4.43;;;16.60;56.10;;;;;;4866383;29;20533;-73
2023/02/14 10:06:20;;;;;;;6.88;4.20;;;16.60;56.30;;;;;;4809276;29;20373;-73
2023/02/14 10:09:13;;;;;;;9.60;4.70;;;16.60;56.50;;;;;;4863945;29;20065;-74
2023/02/14 10:11:42;;;;;;;11.60;4.47;;;16.70;56.80;;;;;;4881420;29;20468;-74
2023/02/14 10:14:15;;;;;;;8.63;4.47;;;16.40;57.20;;;;;;4864503;29;20053;-73
2023/02/14 10:17:01;;;;;;;8.50;4.10;;;16.50;57.30;;;;;;4864993;29;20053;-76
2023/02/14 10:19:38;;;;;;;11.38;3.67;;;16.50;57.30;;;;;;4865996;29;20053;-74
2023/02/14 10:22:10;;;;;;;5.45;3.40;;;16.60;57.20;;;;;;4865442;29;20113;-74
2023/02/14 10:24:46;;;;;;;10.05;3.90;;;16.60;57.20;;;;;;4863789;29;20060;-75
2023/02/14 10:27:41;;;;;;;8.80;3.75;;;16.50;57.10;;;;;;4865490;29;20033;-76
2023/02/14 10:30:11;;;;;;;6.35;3.85;;;16.50;57.10;;;;;;4865346;29;20472;-75
2023/02/14 10:32:47;;;;;;;5.18;3.85;;;16.50;57.20;;;;;;4865530;29;20360;-76
2023/02/14 10:35:30;;;;;;;8.23;4.75;;;16.40;57.30;;;;;;4865318;29;20133;-78
2023/02/14 10:38:37;;;;;;;5.82;4.35;;;15.90;58.80;;;;;;4864088;29;20053;-76
2023/02/14 10:41:23;;;;;;;9.13;4.57;;;15.60;59.70;;;;;;4864746;29;20054;-77
2023/02/14 10:44:07;;;;;;;7.15;4.07;;;15.30;61.00;;;;;;4864977;29;20050;-78
2023/02/14 10:47:06;;;;;;;4.38;3.40;;;15.20;61.40;;;;;;4865026;29;20038;-78
2023/02/14 10:49:55;;;;;;;5.75;3.65;;;15.10;62.10;;;;;;4851791;29;20053;-76
2023/02/14 10:52:44;;;;;;;5.78;3.78;;;15.10;61.00;;;;;;4879355;29;20081;-76
2023/02/14 10:55:18;;;;;;;6.97;4.22;;;14.90;61.20;;;;;;4846946;29;20045;-77
2023/02/14 10:57:52;;;;;;;6.45;3.85;;;14.90;61.50;;;;;;4863583;29;20065;-78
2023/02/14 11:00:32;;;;;;;4.78;3.88;;;14.90;61.60;;;;;;4848283;29;20046;-76
2023/02/14 11:03:00;;;;;;;5.88;3.45;;;14.80;61.80;;;;;;4879584;29;20055;-79
2023/02/14 11:05:40;;;;;;;5.78;3.33;;;14.80;62.20;;;;;;4864078;29;20468;-77
2023/02/14 11:08:14;;;;;;;5.57;3.47;;;14.70;62.40;;;;;;4863756;29;20080;-78
2023/02/14 11:10:39;;;;;;;6.95;3.28;;;14.70;62.60;;;;;;4847079;29;20053;-78
2023/02/14 11:13:33;;;;;;;4.22;3.30;;;14.60;62.70;;;;;;4847969;29;20042;-78
2023/02/14 11:16:05;;;;;;;3.20;2.90;;;14.60;63.10;;;;;;4845942;29;20122;-78
2023/02/14 11:18:34;;;;;;;5.80;3.42;;;14.60;64.00;;;;;;4863006;29;20077;-78
2023/02/14 11:21:10;;;;;;;5.00;3.40;;;14.60;64.50;;;;;;4847631;29;20038;-81
2023/02/14 11:23:47;;;;;;;6.30;3.55;;;14.70;64.50;;;;;;4863813;29;20063;-77
2023/02/14 11:26:33;;;;;;;4.75;2.90;;;14.70;64.70;;;;;;4833214;29;20056;-79
2023/02/14 11:29:14;;;;;;;3.88;2.90;;;14.80;64.60;;;;;;4863541;29;20042;-81
2023/02/14 11:31:53;;;;;;;5.93;2.90;;;14.80;64.90;;;;;;4860511;29;20041;-78
2023/02/14 11:34:44;;;;;;;4.43;2.90;;;14.90;64.80;;;;;;4864066;29;20472;-77
2023/02/14 11:37:33;;;;;;;4.43;3.10;;;14.90;64.10;;;;;;4879213;29;20045;-79
2023/02/14 11:40:01;;;;;;;4.40;3.10;;;14.90;64.60;;;;;;4847627;29;20045;-80
2023/02/14 11:42:47;;;;;;;4.95;2.80;;;15.00;64.40;;;;;;4862727;29;20084;-80
2023/02/14 11:45:46;;;;;;;6.93;2.47;;;14.90;63.00;;;;;;4863375;29;20460;-78
2023/02/14 11:48:23;;;;;;;2.78;2.35;;;14.90;63.20;;;;;;4828221;29;20384;-77
2023/02/14 11:51:08;;;;;;;3.92;2.22;;;14.80;63.20;;;;;;4862909;29;20341;-78
2023/02/14 11:53:51;;;;;;;4.38;2.55;;;14.70;63.20;;;;;;4863440;29;20057;-77
2023/02/14 11:56:19;;;;;;;3.90;2.40;;;14.70;63.30;;;;;;4848058;29;20049;-78
2023/02/14 11:58:54;;;;;;;2.65;2.20;;;14.70;63.40;;;;;;4864653;29;20398;-78
2023/02/14 12:01:29;;;;;;;2.55;1.92;;;14.60;63.40;;;;;;4878003;29;20038;-77
2023/02/14 12:04:00;;;;;;;3.15;2.28;;;14.60;63.50;;;;;;4863297;29;20091;-78
2023/02/14 12:06:34;;;;;;;3.97;2.38;;;14.50;63.50;;;;;;4847880;29;20056;-79
2023/02/14 12:09:30;;;;;;;3.17;2.30;;;14.50;63.60;;;;;;4831956;29;20072;-76
2023/02/14 12:12:20;;;;;;;3.22;2.30;;;14.50;63.60;;;;;;4858972;29;20409;-79
2023/02/14 12:14:47;;;;;;;3.00;2.30;;;14.50;63.60;;;;;;4863731;29;20472;-78
2023/02/14 12:17:34;;;;;;;2.83;2.03;;;14.50;63.80;;;;;;4848037;29;20041;-79
2023/02/14 12:20:14;;;;;;;3.88;2.53;;;14.40;63.80;;;;;;4862610;29;20042;-78
2023/02/14 12:22:52;;;;;;;16.42;10.65;;;14.40;63.80;;;;;;4878191;29;20049;-77
2023/02/14 12:25:24;;;;;;;34.22;24.40;;;14.50;63.70;;;;;;4863663;29;20054;-78
2023/02/14 12:28:00;;;;;;;37.30;27.08;;;14.50;62.20;;;;;;4847538;29;20041;-78
2023/02/14 12:30:30;;;;;;;36.33;27.98;;;14.50;61.50;;;;;;4862252;29;20120;-77
2023/02/14 12:32:56;;;;;;;35.80;25.60;;;14.30;62.30;;;;;;4862158;29;20053;-76
2023/02/14 12:36:21;;;;;;;33.33;25.10;;;14.20;62.30;;;;;;4847769;29;20038;-77
2023/02/14 12:38:58;;;;;;;31.27;22.33;;;14.20;62.90;;;;;;4755172;30;20066;-77
2023/02/14 12:41:38;;;;;;;33.17;22.13;;;14.20;63.20;;;;;;4788308;30;20043;-78
2023/02/14 12:44:38;;;;;;;28.63;21.15;;;14.20;63.40;;;;;;4847392;29;20065;-78
2023/02/14 12:47:24;;;;;;;31.40;22.30;;;14.20;63.40;;;;;;4862957;29;20075;-78
2023/02/14 12:50:18;;;;;;;34.45;22.20;;;14.30;63.20;;;;;;4874515;29;20042;-77
2023/02/14 12:53:17;;;;;;;29.42;20.45;;;14.30;63.00;;;;;;4845848;29;20057;-78
2023/02/14 12:55:59;;;;;;;27.80;19.60;;;14.40;62.90;;;;;;4862750;29;20053;-76
2023/02/14 12:58:43;;;;;;;28.27;17.08;;;14.70;62.80;;;;;;4862186;29;20132;-79
2023/02/14 13:01:32;;;;;;;25.23;16.63;;;14.70;63.00;;;;;;4877516;29;20045;-77
2023/02/14 13:04:03;;;;;;;23.52;16.25;;;14.90;62.70;;;;;;4819513;29;20081;-77
2023/02/14 13:06:48;;;;;;;24.20;15.55;;;15.10;62.70;;;;;;4861296;29;20073;-79
2023/02/14 13:09:42;;;;;;;20.17;14.38;;;15.20;62.60;;;;;;4859958;29;20054;-77
2023/02/14 13:12:25;;;;;;;18.45;12.60;;;15.30;62.50;;;;;;4861385;29;20071;-78
2023/02/14 13:15:15;;;;;;;20.10;12.85;;;15.40;62.30;;;;;;4861827;29;20045;-78
2023/02/14 13:17:50;;;;;;;16.85;11.77;;;15.40;62.30;;;;;;4861721;29;20072;-78
2023/02/14 13:20:31;;;;;;;18.70;10.95;;;15.40;62.40;;;;;;4846185;29;20041;-78
2023/02/14 13:23:04;;;;;;;15.63;10.63;;;15.40;62.80;;;;;;4862294;29;20041;-79
2023/02/14 13:25:34;;;;;;;15.05;9.35;;;15.50;62.70;;;;;;4861632;29;20057;-79
2023/02/14 13:28:04;;;;;;;18.05;9.90;;;15.50;62.80;;;;;;4861383;29;20377;-78
2023/02/14 13:30:35;;;;;;;12.32;8.98;;;15.60;62.90;;;;;;4847075;29;20113;-79
2023/02/14 13:33:07;;;;;;;12.57;8.30;;;15.60;63.10;;;;;;4862233;29;20049;-80
2023/02/14 13:35:34;;;;;;;12.15;7.78;;;15.60;63.30;;;;;;4861649;29;20060;-78
2023/02/14 13:38:11;;;;;;;13.73;7.20;;;15.60;63.40;;;;;;4861824;29;20057;-78
2023/02/14 13:40:47;;;;;;;15.77;7.03;;;15.70;63.50;;;;;;4861579;29;20133;-80
2023/02/14 13:43:51;;;;;;;12.40;6.72;;;15.70;63.40;;;;;;4861460;29;20053;-79
2023/02/14 13:46:32;;;;;;;9.95;6.47;;;15.90;63.20;;;;;;4857054;29;20399;-80
2023/02/14 13:49:01;;;;;;;13.90;6.90;;;16.00;63.00;;;;;;4864157;29;20044;-80
2023/02/14 13:51:51;;;;;;;15.50;7.22;;;16.20;62.80;;;;;;4881124;29;20364;-78
2023/02/14 13:54:44;;;;;;;10.27;5.93;;;16.30;62.60;;;;;;4849018;29;20048;-79
2023/02/14 13:57:36;;;;;;;10.15;5.95;;;16.30;62.50;;;;;;4848968;29;20136;-76
2023/02/14 14:08:06;;;;;;;;;;;;;;;;;;;;;
2023/02/14 14:11:57;;;;;;;10.15;5.85;;;16.40;62.60;;;;;;4838051;29;20132;-80
2023/02/14 14:14:50;;;;;;;10.52;5.05;;;16.40;62.50;;;;;;4818313;29;20054;-78
2023/02/14 14:21:52;;;;;;;;;;;;;;;;;;;;;
2023/02/14 14:29:17;;;;;;;13.05;8.65;;;16.30;61.80;;;;;;4855615;29;20099;-78
2023/02/14 14:32:45;;;;;;;;;;;;;;;;;;;;;
2023/02/14 14:36:29;;;;;;;11.90;7.68;;;16.10;62.00;;;;;;4879163;29;20060;-78
2023/02/14 14:43:38;;;;;;;7.95;6.75;;;16.00;62.20;;;;;;4809282;29;20183;-78
2023/02/14 14:46:09;;;;;;;10.80;6.70;;;15.90;62.30;;;;;;4839413;29;20393;-79
2023/02/14 14:49:01;;;;;;;10.45;5.35;;;15.70;62.30;;;;;;4851307;29;20453;-78
2023/02/14 14:51:42;;;;;;;10.57;6.32;;;15.70;63.10;;;;;;4859394;29;20064;-78
2023/02/14 14:54:31;;;;;;;12.82;6.25;;;15.70;63.40;;;;;;4846322;29;20049;-78
2023/02/14 14:57:06;;;;;;;10.02;5.80;;;15.70;63.40;;;;;;4867202;29;20037;-78
2023/02/14 14:59:38;;;;;;;8.63;6.05;;;15.70;63.30;;;;;;4882544;29;20060;-79
2023/02/14 15:02:33;;;;;;;8.80;5.80;;;15.60;63.20;;;;;;4850053;29;20076;-78
2023/02/14 15:05:37;;;;;;;9.10;5.35;;;15.60;63.20;;;;;;4852438;29;20379;-78
2023/02/14 15:08:30;;;;;;;11.05;6.05;;;15.60;63.30;;;;;;4875165;29;20052;-80
2023/02/14 15:11:07;;;;;;;8.30;5.32;;;15.50;64.40;;;;;;4878939;29;20604;-80
2023/02/14 15:13:52;;;;;;;8.23;5.65;;;15.50;63.70;;;;;;4882984;29;20080;-79
2023/02/14 15:16:28;;;;;;;10.43;6.45;;;15.50;63.60;;;;;;4882541;29;20132;-82
2023/02/14 15:19:10;;;;;;;10.45;5.88;;;15.50;63.70;;;;;;4882323;29;20465;-84
2023/02/14 15:21:36;;;;;;;9.73;5.50;;;15.50;63.60;;;;;;4866706;29;20053;-80
2023/02/14 15:24:03;;;;;;;11.57;6.13;;;15.50;63.70;;;;;;4848581;29;20053;-82
2023/02/14 15:26:34;;;;;;;12.23;6.25;;;15.50;63.90;;;;;;4850286;29;20381;-81
2023/02/14 15:29:04;;;;;;;8.90;6.00;;;15.50;64.00;;;;;;4882571;29;20079;-80
2023/02/14 15:31:41;;;;;;;11.13;7.10;;;15.40;63.90;;;;;;4866508;29;20055;-83
2023/02/14 15:34:08;;;;;;;28.80;22.35;;;15.40;63.90;;;;;;4882314;29;20124;-78
2023/02/14 15:36:35;;;;;;;39.10;28.35;;;15.40;63.60;;;;;;4866011;29;20483;-81
2023/02/14 15:39:05;;;;;;;39.70;30.55;;;15.40;62.80;;;;;;4882437;29;20113;-82
2023/02/14 15:41:31;;;;;;;40.55;30.80;;;15.40;62.10;;;;;;4882806;29;20120;-78
2023/02/14 15:43:58;;;;;;;40.22;31.83;;;15.40;61.60;;;;;;4850650;29;20061;-82
2023/02/14 15:46:37;;;;;;;41.30;31.27;;;15.40;60.90;;;;;;4865718;29;20045;-78
2023/02/14 15:49:14;;;;;;;40.30;32.10;;;15.50;60.30;;;;;;4882636;29;20037;-78
2023/02/14 15:51:42;;;;;;;40.42;32.17;;;15.50;59.80;;;;;;4866970;29;20060;-79
2023/02/14 15:54:27;;;;;;;41.60;33.05;;;15.50;59.50;;;;;;4865944;29;20116;-77
2023/02/14 15:56:55;;;;;;;43.70;32.88;;;15.50;59.10;;;;;;4850064;29;20045;-78
2023/02/14 15:59:28;;;;;;;43.50;34.60;;;15.50;58.80;;;;;;4882430;29;20342;-80
2023/02/14 16:02:15;;;;;;;44.78;34.67;;;15.40;57.30;;;;;;4882013;29;20354;-79
2023/02/14 16:04:41;;;;;;;45.38;35.05;;;15.30;56.50;;;;;;4883119;29;20049;-82
2023/02/14 16:07:27;;;;;;;39.25;33.88;;;15.10;56.70;;;;;;4865141;29;20113;-79
2023/02/14 16:10:19;;;;;;;42.50;32.38;;;14.90;56.80;;;;;;4860290;29;20133;-77
2023/02/14 16:13:00;;;;;;;40.17;31.33;;;14.70;58.30;;;;;;4881914;29;20037;-79
2023/02/14 16:15:29;;;;;;;43.92;30.65;;;14.70;58.70;;;;;;4878875;29;20055;-78
2023/02/14 16:17:55;;;;;;;43.05;28.33;;;14.70;58.80;;;;;;4865865;29;20124;-78
2023/02/14 16:20:45;;;;;;;39.30;27.00;;;14.80;59.20;;;;;;4865530;29;20052;-79
2023/02/14 16:23:52;;;;;;;34.80;26.92;;;15.00;59.80;;;;;;4864767;29;20049;-78
2023/02/14 16:26:24;;;;;;;35.83;25.80;;;15.10;59.80;;;;;;4846704;29;20496;-79
2023/02/14 16:28:53;;;;;;;32.35;25.25;;;15.20;59.80;;;;;;4872302;29;20041;-77
2023/02/14 16:31:18;;;;;;;34.08;23.10;;;15.30;59.80;;;;;;4881921;29;20041;-77
2023/02/14 16:33:47;;;;;;;33.70;22.13;;;15.30;59.90;;;;;;4850247;29;20052;-78
2023/02/14 16:36:22;;;;;;;29.75;20.75;;;15.40;60.10;;;;;;4881340;29;20479;-79
2023/02/14 16:38:49;;;;;;;29.23;20.25;;;15.40;60.20;;;;;;4879689;29;20073;-78
2023/02/14 16:41:20;;;;;;;30.30;19.80;;;15.50;60.40;;;;;;4849886;29;20037;-79
2023/02/14 16:43:58;;;;;;;27.30;18.92;;;15.50;61.10;;;;;;4866583;29;20053;-80
2023/02/14 16:46:28;;;;;;;24.20;18.42;;;15.40;61.00;;;;;;4864539;29;20037;-78
2023/02/14 16:48:56;;;;;;;23.95;16.90;;;15.50;61.10;;;;;;4863096;29;20057;-80
2023/02/14 16:51:24;;;;;;;20.90;15.98;;;15.40;61.20;;;;;;4865104;29;20048;-79
2023/02/14 16:57:33;;;;;;;21.75;14.52;;;15.40;61.50;;;;;;4848589;29;20061;-79
2023/02/14 17:00:09;;;;;;;21.05;14.43;;;15.40;61.80;;;;;;4864489;29;20055;-80
2023/02/14 17:02:37;;;;;;;23.95;14.93;;;15.40;61.90;;;;;;4850770;29;20045;-80
2023/02/14 17:05:06;;;;;;;17.80;13.90;;;15.40;62.10;;;;;;4849624;29;20101;-81
2023/02/14 17:07:36;;;;;;;19.52;12.18;;;15.30;62.20;;;;;;4849898;29;20053;-81
2023/02/14 17:10:09;;;;;;;18.90;12.68;;;15.30;62.40;;;;;;4865312;29;20139;-80
2023/02/14 17:12:40;;;;;;;21.65;13.13;;;15.30;62.50;;;;;;4881729;29;20045;-82
2023/02/14 17:15:14;;;;;;;16.85;11.65;;;15.20;62.60;;;;;;4849459;29;20368;-80
2023/02/14 17:17:43;;;;;;;14.48;11.35;;;15.20;62.70;;;;;;4849419;29;20045;-79
2023/02/14 17:20:18;;;;;;;16.20;10.70;;;15.20;62.70;;;;;;4842385;29;20118;-81
2023/02/14 17:22:44;;;;;;;16.98;10.90;;;15.20;63.00;;;;;;4812484;29;20057;-80
2023/02/14 17:38:44;;;;;;;18.98;12.38;;;15.00;63.40;;;;;;5528808;24;20455;-81
2023/02/14 17:41:14;;;;;;;16.42;12.00;;;15.00;63.70;;;;;;4823727;29;20054;-78
2023/02/14 17:43:40;;;;;;;16.75;11.45;;;14.90;64.10;;;;;;4809955;29;20068;-82
2023/02/14 18:53:51;;;;;;;20.77;11.77;;;14.70;63.60;;;;;;5109529;24;20070;-76
2023/02/14 18:56:29;;;;;;;19.63;11.88;;;14.70;63.80;;;;;;4843210;29;20050;-77
2023/02/14 18:58:58;;;;;;;20.25;12.20;;;14.70;63.90;;;;;;4828135;29;20053;-75
2023/02/14 19:01:29;;;;;;;20.27;12.75;;;14.70;64.00;;;;;;4848641;29;20038;-76
2023/02/14 19:03:58;;;;;;;22.80;12.65;;;14.70;64.50;;;;;;4854962;29;20120;-76
2023/02/14 19:06:25;;;;;;;23.48;12.75;;;14.70;64.60;;;;;;4855401;29;20437;-73
2023/02/14 19:08:50;;;;;;;19.60;12.85;;;14.70;64.50;;;;;;4856198;29;20466;-78
2023/02/14 19:11:19;;;;;;;18.55;12.75;;;14.70;64.70;;;;;;4858139;29;20088;-75
2023/02/14 19:13:53;;;;;;;17.25;13.27;;;14.70;65.20;;;;;;4855310;29;20420;-77
2023/02/14 19:16:24;;;;;;;18.90;13.18;;;14.70;65.00;;;;;;4854144;29;20054;-76
2023/02/14 19:18:52;;;;;;;19.52;12.65;;;14.70;65.00;;;;;;4855822;29;20084;-75
2023/02/14 19:21:23;;;;;;;17.17;11.98;;;14.70;65.90;;;;;;4846079;29;20068;-73
2023/02/14 19:23:52;;;;;;;18.20;13.13;;;14.70;65.30;;;;;;4865491;29;20446;-74
2023/02/14 19:26:23;;;;;;;17.10;11.73;;;14.70;65.30;;;;;;4859349;29;20442;-72
2023/02/14 19:28:55;;;;;;;17.50;13.23;;;14.70;65.40;;;;;;4853484;29;20167;-74
2023/02/14 19:31:21;;;;;;;23.60;13.45;;;14.70;65.40;;;;;;4856140;29;20483;-74
2023/02/14 19:33:47;;;;;;;19.73;12.52;;;14.70;65.30;;;;;;4854540;29;20081;-75
2023/02/14 19:36:15;;;;;;;21.45;12.38;;;14.60;65.30;;;;;;4854070;29;20129;-73
2023/02/14 19:38:42;;;;;;;20.55;13.45;;;14.60;65.40;;;;;;4842040;29;20186;-77
2023/02/14 19:41:13;;;;;;;21.88;13.93;;;14.70;65.50;;;;;;4855964;29;20107;-75
2023/02/14 19:43:39;;;;;;;19.08;12.52;;;14.60;65.50;;;;;;4854865;29;20374;-73
2023/02/14 19:46:04;;;;;;;18.13;12.98;;;14.60;65.60;;;;;;4858794;29;20053;-76
